< Cyclone 198417 1984 Season Cyclone 198419 >
Cyclone 198418 (JIM)
General InformationTrack Information on Google MapsDetailed Wind InformationList of All Images || ResourceGoogle EarthGE AnimationAtom FeedGeoJSON
Detalied Best Track (Time Zone = UTC)
Year Month Day Hour Lat. Long. Pressure (hPa) Wind (kt) Class Image Chart
1984 3 5 21 -11.5 151.4 1004 0 0 Image --
1984 3 6 00 -11.5 150.7 1005 0 0 Image --
1984 3 6 06 -11.5 149.3 1003 0 0 Image --
1984 3 6 12 -11.5 148.1 1004 0 0 Image --
1984 3 6 18 -11.4 147.2 1003 0 0 Image --
1984 3 7 00 -11.2 146.3 1003 0 0 Image --
1984 3 7 06 -11.2 145.7 995 0 0 Image --
1984 3 7 09 -11.2 145.3 992 0 0 Image --
1984 3 7 12 -11.3 144.9 990 0 0 Image --
1984 3 7 15 -11.5 144.5 985 0 0 Image --
1984 3 7 18 -11.7 144.1 980 0 0 Image --
1984 3 7 21 -11.9 143.6 980 0 0 Image --
1984 3 8 00 -12.2 143.1 990 0 0 Image --
1984 3 8 03 -12.0 142.7 995 0 0 Image --
1984 3 8 06 -12.0 142.2 995 0 0 Image --
1984 3 8 09 -12.1 141.6 992 0 0 Image --
1984 3 8 12 -12.4 141.1 988 0 0 Image --
1984 3 8 15 -12.7 140.6 986 0 0 Image --
1984 3 8 18 -13.1 140.0 984 0 0 Image --
1984 3 8 21 -13.3 139.5 982 0 0 Image --
1984 3 9 00 -13.6 139.0 980 0 0 Image --
1984 3 9 03 -13.9 138.4 978 0 0 Image --
1984 3 9 06 -14.2 137.7 976 56 4 Image --
1984 3 9 12 -14.5 136.6 974 56 4 Image --
1984 3 9 18 -14.7 135.5 970 68 5 Image --
1984 3 9 21 -14.7 134.9 990 56 4 Image --
1984 3 10 00 -14.8 134.0 1000 41 3 Image --
< Cyclone 198417 1984 Season Cyclone 198419 >

Help